Time;durP1;ratioP1;P1;durP2;ratioP2;P2;SDS_P1;SDS_P2;PMS_P1;PMS_P2;Temp;Humidity;BMP_temperature;BMP_pressure;BME280_temperature;BME280_humidity;BME280_pressure;Samples;Min_cycle;Max_cycle;Signal;HPM_P1;HPM_P2
2021/04/08 00:02:26;;;;;;;5.15;2.13;;;8.90;31.60;;;;;;6268723;28;20033;-76
2021/04/08 00:05:27;;;;;;;5.50;2.35;;;8.80;31.70;;;;;;6239585;28;20530;-76
2021/04/08 00:08:28;;;;;;;6.18;2.13;;;8.80;32.00;;;;;;6230152;28;20481;-77
2021/04/08 00:11:29;;;;;;;9.18;2.03;;;8.80;32.20;;;;;;6252292;28;20048;-77
2021/04/08 00:14:30;;;;;;;4.10;1.65;;;8.80;32.40;;;;;;6239772;28;20412;-76
2021/04/08 00:17:31;;;;;;;3.22;1.55;;;8.80;32.40;;;;;;6253089;28;21025;-76
2021/04/08 00:20:32;;;;;;;3.47;1.20;;;8.80;32.60;;;;;;6236730;28;20057;-77
2021/04/08 00:23:33;;;;;;;6.47;1.40;;;8.70;32.80;;;;;;6232383;28;20075;-77
2021/04/08 00:26:34;;;;;;;2.92;1.20;;;8.70;33.10;;;;;;6268510;28;20099;-77
2021/04/08 00:29:34;;;;;;;4.38;1.60;;;8.70;33.30;;;;;;6234701;28;20042;-76
2021/04/08 00:32:35;;;;;;;3.45;1.30;;;8.70;33.40;;;;;;6232755;28;20029;-77
2021/04/08 00:35:37;;;;;;;2.92;1.42;;;8.60;33.30;;;;;;6248933;28;20076;-78
2021/04/08 00:38:38;;;;;;;4.13;1.20;;;8.60;33.50;;;;;;6260146;28;20455;-77
2021/04/08 00:41:39;;;;;;;7.60;1.50;;;8.60;33.70;;;;;;6257015;28;20064;-76
2021/04/08 00:44:40;;;;;;;1.60;1.30;;;8.50;33.90;;;;;;6244444;28;20412;-77
2021/04/08 00:47:41;;;;;;;6.50;1.60;;;8.50;34.00;;;;;;6274202;28;20044;-78
2021/04/08 00:50:43;;;;;;;3.17;1.10;;;8.40;34.00;;;;;;6261150;28;20029;-77
2021/04/08 00:53:45;;;;;;;1.80;1.25;;;8.40;34.00;;;;;;6262169;28;20029;-77
2021/04/08 00:56:47;;;;;;;4.38;1.20;;;8.40;34.00;;;;;;6238380;28;20094;-77
2021/04/08 00:59:51;;;;;;;1.15;1.02;;;8.40;34.00;;;;;;6251275;28;20041;-77
2021/04/08 01:02:52;;;;;;;3.72;1.70;;;8.40;34.20;;;;;;6259591;28;20375;-76
2021/04/08 01:05:53;;;;;;;3.13;1.63;;;8.30;34.40;;;;;;6258850;28;20037;-77
2021/04/08 01:08:54;;;;;;;3.05;1.40;;;8.30;34.40;;;;;;6253231;28;20578;-77
2021/04/08 01:11:55;;;;;;;5.28;1.75;;;8.20;34.40;;;;;;6247116;28;20055;-78
2021/04/08 01:14:56;;;;;;;3.22;1.42;;;8.20;34.50;;;;;;6259838;28;20029;-77
2021/04/08 01:18:19;;;;;;;5.70;0.82;;;8.20;34.60;;;;;;6233668;28;20087;-77
2021/04/08 01:21:29;;;;;;;2.75;1.40;;;8.10;34.60;;;;;;6257056;28;20025;-78
2021/04/08 01:25:15;;;;;;;5.63;1.25;;;8.10;34.60;;;;;;6250666;28;20175;-77
2021/04/08 01:28:35;;;;;;;2.40;1.25;;;8.00;34.80;;;;;;6167150;28;20061;-77
2021/04/08 01:31:38;;;;;;;2.33;1.15;;;8.00;34.90;;;;;;6184457;28;20053;-77
2021/04/08 01:34:41;;;;;;;3.20;1.25;;;7.90;35.00;;;;;;6199702;28;20038;-77
2021/04/08 01:37:49;;;;;;;1.88;0.75;;;7.90;35.00;;;;;;6201411;28;20050;-78
2021/04/08 01:40:51;;;;;;;0.93;0.80;;;7.90;35.10;;;;;;6201048;28;20058;-77
2021/04/08 01:43:56;;;;;;;2.58;1.30;;;7.90;35.30;;;;;;6186140;28;20050;-78
2021/04/08 01:47:00;;;;;;;1.20;0.85;;;7.90;35.50;;;;;;6188457;28;20039;-77
2021/04/08 01:50:02;;;;;;;1.58;1.15;;;7.80;35.60;;;;;;6163550;28;20038;-77
2021/04/08 01:53:07;;;;;;;3.20;1.38;;;7.80;35.80;;;;;;6200915;28;20046;-77
2021/04/08 01:56:09;;;;;;;3.10;1.10;;;7.70;35.80;;;;;;6184800;28;20058;-78
2021/04/08 01:59:14;;;;;;;4.80;0.85;;;7.70;35.90;;;;;;6200668;28;20042;-77
2021/04/08 02:02:16;;;;;;;1.63;0.85;;;7.60;35.80;;;;;;6195746;28;20152;-77
2021/04/08 02:05:17;;;;;;;1.42;0.82;;;7.60;35.80;;;;;;6258005;28;20079;-77
2021/04/08 02:08:20;;;;;;;3.30;1.42;;;7.60;35.80;;;;;;6243677;28;20042;-77
2021/04/08 02:11:22;;;;;;;4.22;0.95;;;7.60;35.70;;;;;;6250693;28;20064;-76
2021/04/08 02:14:25;;;;;;;2.20;0.90;;;7.60;35.70;;;;;;6239395;28;20036;-77
2021/04/08 02:17:26;;;;;;;1.50;0.65;;;7.60;35.70;;;;;;6248290;28;20072;-77
2021/04/08 02:20:30;;;;;;;3.00;1.27;;;7.60;35.70;;;;;;6232244;28;20033;-76
2021/04/08 02:23:35;;;;;;;3.90;1.10;;;7.60;35.80;;;;;;6239760;28;20092;-76
2021/04/08 02:26:39;;;;;;;3.88;1.27;;;7.50;35.90;;;;;;6218390;28;20387;-77
2021/04/08 02:29:41;;;;;;;4.65;1.15;;;7.50;36.10;;;;;;6244743;28;20047;-79
2021/04/08 02:32:43;;;;;;;1.52;1.38;;;7.50;36.20;;;;;;6233787;28;20044;-78
2021/04/08 02:35:44;;;;;;;2.33;1.15;;;7.50;36.30;;;;;;6217082;28;20075;-78
2021/04/08 02:38:45;;;;;;;5.30;1.40;;;7.40;36.50;;;;;;6233869;28;20457;-78
2021/04/08 02:41:48;;;;;;;3.40;1.10;;;7.40;36.60;;;;;;6274345;28;20387;-78
2021/04/08 02:44:49;;;;;;;1.90;1.10;;;7.40;36.60;;;;;;6259884;28;20033;-77
2021/04/08 02:47:50;;;;;;;4.15;1.20;;;7.40;36.80;;;;;;6233469;28;20392;-76
2021/04/08 02:50:54;;;;;;;1.80;1.13;;;7.30;36.80;;;;;;6232938;28;20071;-77
2021/04/08 02:54:03;;;;;;;3.08;1.42;;;7.30;36.90;;;;;;6250395;28;20472;-78
2021/04/08 02:57:06;;;;;;;4.95;1.20;;;7.30;36.90;;;;;;6235718;28;20094;-77
2021/04/08 03:00:09;;;;;;;1.48;1.02;;;7.30;36.80;;;;;;6256807;28;20040;-77
2021/04/08 03:03:12;;;;;;;2.83;1.13;;;7.40;36.80;;;;;;6257005;28;20471;-77
2021/04/08 03:06:15;;;;;;;3.45;1.20;;;7.40;36.90;;;;;;6239264;28;20060;-77
2021/04/08 03:09:28;;;;;;;3.95;1.10;;;7.40;36.90;;;;;;6249026;28;20464;-76
2021/04/08 03:12:31;;;;;;;1.27;0.82;;;7.40;37.20;;;;;;6234689;28;20034;-77
2021/04/08 03:15:38;;;;;;;7.32;2.05;;;7.40;37.60;;;;;;6274698;28;20352;-77
2021/04/08 03:18:42;;;;;;;1.92;1.17;;;7.40;38.00;;;;;;6241326;28;20040;-77
2021/04/08 03:21:47;;;;;;;5.72;1.10;;;7.40;38.20;;;;;;6248548;28;20044;-78
2021/04/08 03:24:51;;;;;;;1.83;1.20;;;7.40;38.30;;;;;;6271305;28;20162;-78
2021/04/08 03:27:52;;;;;;;3.80;1.50;;;7.40;38.30;;;;;;6243892;28;20048;-77
2021/04/08 03:30:55;;;;;;;1.80;1.23;;;7.40;38.40;;;;;;6249127;28;20075;-77
2021/04/08 03:33:56;;;;;;;5.05;1.35;;;7.40;38.60;;;;;;6232471;28;20051;-77
2021/04/08 03:36:57;;;;;;;4.72;1.25;;;7.30;38.60;;;;;;6247783;28;20115;-78
2021/04/08 03:40:00;;;;;;;6.22;1.20;;;7.40;38.40;;;;;;6268303;28;20410;-76
2021/04/08 03:43:01;;;;;;;8.32;1.50;;;7.30;38.10;;;;;;6248716;28;20341;-78
2021/04/08 03:46:04;;;;;;;2.00;0.90;;;7.30;37.90;;;;;;6255224;28;20040;-77
2021/04/08 03:49:07;;;;;;;10.50;1.90;;;7.30;37.70;;;;;;6232615;28;20472;-77
2021/04/08 03:52:11;;;;;;;4.78;1.60;;;7.30;37.70;;;;;;6226801;28;20516;-77
2021/04/08 03:55:13;;;;;;;1.60;1.00;;;7.30;37.60;;;;;;6256787;28;20033;-77
2021/04/08 03:58:16;;;;;;;3.45;1.05;;;7.30;37.40;;;;;;6256475;28;20033;-77
2021/04/08 04:01:18;;;;;;;10.45;1.27;;;7.20;37.30;;;;;;6239941;28;20376;-77
2021/04/08 04:04:20;;;;;;;2.08;0.68;;;7.20;37.30;;;;;;6273491;28;20431;-78
2021/04/08 04:07:21;;;;;;;3.55;1.17;;;7.20;37.30;;;;;;6239153;28;20053;-76
2021/04/08 04:10:22;;;;;;;3.83;1.20;;;7.20;37.40;;;;;;6227589;28;20357;-77
2021/04/08 04:13:24;;;;;;;1.23;0.98;;;7.10;37.40;;;;;;6232532;28;20586;-77
2021/04/08 04:16:25;;;;;;;1.77;0.93;;;7.10;37.70;;;;;;6240871;28;20348;-76
2021/04/08 04:19:26;;;;;;;6.88;1.80;;;7.00;37.90;;;;;;6219155;28;20036;-78
2021/04/08 04:22:27;;;;;;;4.57;0.98;;;7.00;38.00;;;;;;6220118;28;20029;-77
2021/04/08 04:25:28;;;;;;;1.80;0.90;;;6.90;38.10;;;;;;6234404;28;20048;-77
2021/04/08 04:28:30;;;;;;;2.78;1.20;;;6.90;38.20;;;;;;6255469;28;20055;-77
2021/04/08 04:31:34;;;;;;;5.65;1.08;;;6.90;38.30;;;;;;6204349;28;20049;-78
2021/04/08 04:34:36;;;;;;;2.30;1.27;;;6.80;38.40;;;;;;6273319;28;20048;-76
2021/04/08 04:37:37;;;;;;;2.53;1.50;;;6.80;38.60;;;;;;6225289;28;20072;-77
2021/04/08 04:40:38;;;;;;;2.25;1.58;;;6.80;38.90;;;;;;6215819;28;20038;-76
2021/04/08 04:43:40;;;;;;;2.60;1.55;;;6.80;39.20;;;;;;6265666;28;20045;-77
2021/04/08 04:46:41;;;;;;;6.15;1.55;;;6.80;39.30;;;;;;6245680;28;20590;-77
2021/04/08 04:49:42;;;;;;;5.25;2.22;;;6.70;39.40;;;;;;6250117;28;20046;-77
2021/04/08 04:52:43;;;;;;;4.32;1.50;;;6.80;39.70;;;;;;6249995;28;20174;-76
2021/04/08 04:55:44;;;;;;;1.48;1.20;;;6.80;40.30;;;;;;6235324;28;20100;-76
2021/04/08 04:58:45;;;;;;;4.07;1.45;;;6.70;40.80;;;;;;6253333;28;20033;-77
2021/04/08 05:01:45;;;;;;;6.68;2.08;;;6.70;40.20;;;;;;6233475;28;20423;-76
2021/04/08 05:04:46;;;;;;;2.03;1.13;;;6.60;40.30;;;;;;6221358;28;20030;-78
2021/04/08 05:07:47;;;;;;;2.42;1.20;;;6.60;40.30;;;;;;6259437;28;20550;-77
2021/04/08 05:10:48;;;;;;;2.70;1.25;;;6.50;40.50;;;;;;6253431;28;20380;-77
2021/04/08 05:13:52;;;;;;;3.90;1.15;;;6.50;40.80;;;;;;6252261;28;20053;-77
2021/04/08 05:16:54;;;;;;;10.20;1.70;;;6.40;41.20;;;;;;6236075;28;20121;-77
2021/04/08 05:19:57;;;;;;;6.55;1.50;;;6.40;41.60;;;;;;6248897;28;20100;-77
2021/04/08 05:22:58;;;;;;;10.18;1.30;;;6.30;41.70;;;;;;6220013;28;20033;-77
2021/04/08 05:25:59;;;;;;;1.10;0.88;;;6.30;41.80;;;;;;6253069;28;20037;-77
2021/04/08 05:29:00;;;;;;;1.92;1.10;;;6.30;41.80;;;;;;6252606;28;20372;-77
2021/04/08 05:32:01;;;;;;;3.45;1.15;;;6.30;42.00;;;;;;6259160;28;20044;-76
2021/04/08 05:35:04;;;;;;;19.40;1.48;;;6.20;42.10;;;;;;6246968;28;20034;-77
2021/04/08 05:38:04;;;;;;;5.82;1.13;;;6.20;42.20;;;;;;6246406;28;20122;-77
2021/04/08 05:41:05;;;;;;;5.78;0.90;;;6.30;42.40;;;;;;6258433;28;20040;-77
2021/04/08 05:44:06;;;;;;;2.90;1.45;;;6.30;42.40;;;;;;6260085;28;20527;-76
2021/04/08 05:47:07;;;;;;;1.67;1.27;;;6.30;42.20;;;;;;6243500;28;20387;-76
2021/04/08 05:50:09;;;;;;;7.53;2.60;;;6.30;42.00;;;;;;6252077;28;20053;-76
2021/04/08 05:53:11;;;;;;;7.15;2.03;;;6.20;41.80;;;;;;6252329;28;20037;-77
2021/04/08 05:56:12;;;;;;;19.00;3.42;;;6.30;41.80;;;;;;6248514;28;20068;-77
2021/04/08 05:59:14;;;;;;;17.40;3.30;;;6.30;41.70;;;;;;6254662;28;20034;-77
2021/04/08 06:02:15;;;;;;;9.32;3.40;;;6.30;41.80;;;;;;6249019;28;20048;-78
2021/04/08 06:05:16;;;;;;;9.88;3.05;;;6.30;41.80;;;;;;6255657;28;20025;-78
2021/04/08 06:08:17;;;;;;;7.07;3.13;;;6.30;41.70;;;;;;6275283;28;20044;-77
2021/04/08 06:11:18;;;;;;;9.70;3.45;;;6.40;41.50;;;;;;6243442;28;20461;-76
2021/04/08 06:14:19;;;;;;;6.22;2.45;;;6.40;41.10;;;;;;6234479;28;20037;-78
2021/04/08 06:17:20;;;;;;;14.63;2.13;;;6.50;40.80;;;;;;6222288;28;20518;-77
2021/04/08 06:20:23;;;;;;;5.85;2.53;;;6.50;40.50;;;;;;6217128;28;20034;-78
2021/04/08 06:23:24;;;;;;;7.18;2.10;;;6.50;40.30;;;;;;6225424;28;20041;-77
2021/04/08 06:26:25;;;;;;;3.88;1.95;;;6.50;40.40;;;;;;6240894;28;20482;-76
2021/04/08 06:29:26;;;;;;;3.42;1.60;;;6.60;40.50;;;;;;6241749;28;20127;-76
2021/04/08 06:32:27;;;;;;;9.77;2.15;;;6.60;40.40;;;;;;6238160;28;20033;-78
2021/04/08 06:35:28;;;;;;;4.57;2.10;;;6.60;40.40;;;;;;6234655;28;20483;-77
2021/04/08 06:38:30;;;;;;;6.63;2.35;;;6.70;40.30;;;;;;6227292;28;20090;-77
2021/04/08 06:41:32;;;;;;;15.32;2.42;;;6.70;40.20;;;;;;6249981;28;20092;-77
2021/04/08 06:44:35;;;;;;;9.90;2.03;;;6.80;40.20;;;;;;6233644;28;20111;-76
2021/04/08 06:47:58;;;;;;;8.02;2.10;;;6.90;40.70;;;;;;6240068;28;20033;-76
2021/04/08 06:51:01;;;;;;;5.80;2.15;;;6.90;40.00;;;;;;6245979;28;20033;-77
2021/04/08 06:54:05;;;;;;;6.63;1.85;;;7.00;39.80;;;;;;6228827;28;20049;-78
2021/04/08 06:57:06;;;;;;;20.70;1.67;;;7.10;39.70;;;;;;6250565;28;20371;-78
2021/04/08 07:00:08;;;;;;;5.88;1.80;;;7.20;39.50;;;;;;6206229;28;20037;-78
2021/04/08 07:03:09;;;;;;;6.28;1.30;;;7.30;39.20;;;;;;6237695;28;20087;-77
2021/04/08 07:06:11;;;;;;;2.30;1.02;;;7.40;38.90;;;;;;6247684;28;20045;-78
2021/04/08 07:09:13;;;;;;;2.58;1.58;;;7.50;38.50;;;;;;6234535;28;20043;-77
2021/04/08 07:12:14;;;;;;;11.30;1.55;;;7.60;38.20;;;;;;6218031;28;20040;-77
2021/04/08 07:15:18;;;;;;;6.72;2.08;;;7.70;38.00;;;;;;6228043;28;20030;-77
2021/04/08 07:18:19;;;;;;;4.45;2.40;;;7.70;37.70;;;;;;6225768;28;20029;-77
2021/04/08 07:21:22;;;;;;;4.30;1.42;;;7.80;37.60;;;;;;6239045;28;20029;-77
2021/04/08 07:24:25;;;;;;;5.88;1.65;;;8.00;37.80;;;;;;6215725;28;20038;-78
2021/04/08 07:27:33;;;;;;;13.48;3.00;;;8.10;37.50;;;;;;6223589;28;20133;-78
2021/04/08 07:30:33;;;;;;;11.75;1.83;;;8.30;37.40;;;;;;6212407;28;20069;-77
2021/04/08 07:33:41;;;;;;;19.75;2.60;;;8.40;37.10;;;;;;6238943;28;20055;-78
2021/04/08 07:36:52;;;;;;;11.77;2.67;;;8.50;36.70;;;;;;6235366;28;20049;-77
2021/04/08 07:39:54;;;;;;;5.45;1.95;;;8.60;37.20;;;;;;6241165;28;20091;-77
2021/04/08 07:42:55;;;;;;;18.20;2.75;;;8.70;36.50;;;;;;6270984;28;20400;-78
2021/04/08 07:45:57;;;;;;;19.02;3.53;;;8.80;36.20;;;;;;6253788;28;20037;-77
2021/04/08 07:48:59;;;;;;;16.52;2.42;;;8.90;36.00;;;;;;6223207;28;20117;-77
2021/04/08 07:52:19;;;;;;;9.05;2.00;;;9.10;35.60;;;;;;6239142;28;20049;-78
2021/04/08 07:55:29;;;;;;;4.65;1.77;;;9.20;35.30;;;;;;6246886;28;20171;-78
2021/04/08 07:58:31;;;;;;;8.25;2.00;;;9.40;35.00;;;;;;6229450;28;20062;-76
2021/04/08 08:02:21;;;;;;;6.78;1.75;;;9.60;34.60;;;;;;6222467;28;20037;-77
2021/04/08 08:05:46;;;;;;;3.80;1.52;;;9.80;33.90;;;;;;6220498;28;20353;-77
2021/04/08 08:08:49;;;;;;;4.40;1.45;;;9.90;33.50;;;;;;6217743;28;20127;-78
2021/04/08 08:11:52;;;;;;;3.97;1.48;;;10.10;33.00;;;;;;6236296;28;20061;-79
2021/04/08 08:15:14;;;;;;;2.70;1.45;;;10.20;32.40;;;;;;6230988;28;20126;-78
2021/04/08 08:18:40;;;;;;;4.68;1.67;;;10.30;31.20;;;;;;6231881;28;20033;-77
2021/04/08 08:21:41;;;;;;;3.20;1.08;;;10.40;30.90;;;;;;6241318;28;20459;-78
2021/04/08 08:24:55;;;;;;;19.15;2.40;;;10.60;30.70;;;;;;6203066;28;20033;-77
2021/04/08 08:27:57;;;;;;;30.60;4.03;;;10.70;30.40;;;;;;6228936;28;20036;-77
2021/04/08 08:31:00;;;;;;;11.77;2.28;;;10.70;30.00;;;;;;6230072;28;20052;-77
2021/04/08 08:34:09;;;;;;;17.02;2.17;;;10.80;30.00;;;;;;6225157;28;20056;-77
2021/04/08 08:37:13;;;;;;;4.60;1.60;;;10.90;30.00;;;;;;6227341;28;20039;-77
2021/04/08 08:40:14;;;;;;;2.83;1.60;;;11.10;29.90;;;;;;6217205;28;20464;-79
2021/04/08 08:43:17;;;;;;;5.07;1.65;;;11.30;29.80;;;;;;6261313;28;20029;-78
2021/04/08 08:46:18;;;;;;;3.70;1.70;;;11.40;29.20;;;;;;6271497;28;20048;-77
2021/04/08 08:49:22;;;;;;;4.70;1.63;;;11.50;29.40;;;;;;6230364;28;20467;-77
2021/04/08 08:52:44;;;;;;;4.60;1.70;;;11.70;29.40;;;;;;6238192;28;20025;-77
2021/04/08 08:55:46;;;;;;;9.40;1.92;;;11.80;29.20;;;;;;6238716;28;20044;-76
2021/04/08 08:58:47;;;;;;;3.85;1.38;;;11.90;28.70;;;;;;6241900;28;20036;-77
2021/04/08 09:01:50;;;;;;;10.27;1.80;;;12.10;28.40;;;;;;6280221;28;20044;-77
2021/04/08 09:04:54;;;;;;;4.00;1.80;;;12.20;28.30;;;;;;6270057;28;20037;-79
2021/04/08 09:08:00;;;;;;;6.35;2.08;;;12.30;28.30;;;;;;6253498;28;20060;-78
2021/04/08 09:11:01;;;;;;;3.15;1.40;;;12.40;28.10;;;;;;6265037;28;20048;-78
2021/04/08 09:14:02;;;;;;;6.75;1.30;;;12.50;27.90;;;;;;6258278;28;20030;-78
2021/04/08 09:17:03;;;;;;;3.00;1.40;;;12.60;27.80;;;;;;6257672;28;20402;-77
2021/04/08 09:20:05;;;;;;;12.50;4.90;;;12.70;27.90;;;;;;6219344;28;20048;-77
2021/04/08 09:23:11;;;;;;;9.85;2.20;;;12.80;27.20;;;;;;6232429;28;20041;-76
2021/04/08 09:26:22;;;;;;;3.03;1.63;;;12.80;26.80;;;;;;6215903;28;20468;-77
2021/04/08 09:29:47;;;;;;;7.35;2.60;;;12.80;26.80;;;;;;6240963;28;20456;-77
2021/04/08 09:32:48;;;;;;;8.18;2.60;;;12.90;26.90;;;;;;6255044;28;20085;-79
2021/04/08 09:35:49;;;;;;;5.45;2.47;;;13.00;26.80;;;;;;6207388;28;20026;-78
2021/04/08 09:38:54;;;;;;;5.43;1.80;;;13.10;26.60;;;;;;6240826;28;20434;-78
2021/04/08 09:42:01;;;;;;;4.35;1.33;;;13.20;26.50;;;;;;6242528;28;20397;-79
2021/04/08 09:45:03;;;;;;;5.95;1.48;;;13.20;26.30;;;;;;6232856;28;20029;-78
2021/04/08 09:48:07;;;;;;;7.05;1.33;;;13.30;26.20;;;;;;6221638;28;20052;-78
2021/04/08 09:51:08;;;;;;;7.65;1.50;;;13.30;25.90;;;;;;6249574;28;20036;-78
2021/04/08 09:54:19;;;;;;;4.07;1.88;;;13.40;26.00;;;;;;6268280;28;20360;-78
2021/04/08 09:57:37;;;;;;;19.05;6.07;;;13.40;26.00;;;;;;6232479;28;20037;-80
2021/04/08 10:00:38;;;;;;;3.63;1.70;;;13.50;25.30;;;;;;6254357;28;20052;-79
2021/04/08 10:03:41;;;;;;;9.80;2.47;;;13.60;25.30;;;;;;6228013;28;20038;-78
2021/04/08 10:06:42;;;;;;;4.78;1.63;;;13.70;25.50;;;;;;6215206;28;20133;-78
2021/04/08 10:09:54;;;;;;;4.60;1.40;;;13.70;25.70;;;;;;6255145;28;20032;-78
2021/04/08 10:12:55;;;;;;;6.85;1.58;;;13.80;25.60;;;;;;6275540;28;20119;-79
2021/04/08 10:16:00;;;;;;;2.25;1.23;;;13.80;25.50;;;;;;6303340;28;20391;-76
2021/04/08 10:19:02;;;;;;;8.23;2.40;;;13.90;25.60;;;;;;6270243;28;20033;-77
2021/04/08 10:22:04;;;;;;;6.78;2.20;;;14.00;25.50;;;;;;6251170;28;20075;-78
2021/04/08 10:25:05;;;;;;;5.10;1.58;;;14.10;25.50;;;;;;6263167;28;20359;-78
2021/04/08 10:28:07;;;;;;;3.83;1.45;;;14.40;25.50;;;;;;6267425;28;20040;-79
2021/04/08 10:31:24;;;;;;;2.17;1.33;;;14.30;25.20;;;;;;6234290;28;20064;-78
2021/04/08 10:34:33;;;;;;;2.15;1.40;;;14.50;25.10;;;;;;6266265;28;20036;-79
2021/04/08 10:37:34;;;;;;;8.23;1.50;;;14.50;24.40;;;;;;6249179;28;20447;-76
2021/04/08 10:40:36;;;;;;;3.63;1.48;;;14.60;24.30;;;;;;6261713;28;20071;-77
2021/04/08 10:43:37;;;;;;;3.30;1.15;;;14.60;24.50;;;;;;6236543;28;20064;-77
2021/04/08 10:46:43;;;;;;;4.35;1.73;;;14.80;24.50;;;;;;6276267;28;20044;-79
2021/04/08 10:49:52;;;;;;;10.50;2.95;;;15.20;24.40;;;;;;6251777;28;20036;-77
2021/04/08 10:52:54;;;;;;;14.25;3.38;;;15.80;24.10;;;;;;6268654;28;20048;-77
2021/04/08 10:55:55;;;;;;;4.57;1.83;;;16.40;23.60;;;;;;6254530;28;20343;-79
2021/04/08 10:59:17;;;;;;;6.90;1.80;;;16.90;23.00;;;;;;6255637;28;20037;-79
2021/04/08 11:02:39;;;;;;;7.15;1.60;;;17.40;22.30;;;;;;6274263;28;20111;-78
2021/04/08 11:05:39;;;;;;;3.20;1.00;;;17.80;21.60;;;;;;6258120;28;20025;-78
2021/04/08 11:08:48;;;;;;;1.17;1.08;;;18.20;20.50;;;;;;6259485;28;20071;-78
2021/04/08 11:11:50;;;;;;;4.00;1.40;;;18.30;20.50;;;;;;6239727;28;20108;-78
2021/04/08 11:14:53;;;;;;;2.40;1.23;;;18.50;20.20;;;;;;6253502;28;20371;-78
2021/04/08 11:18:00;;;;;;;2.75;1.27;;;18.90;20.20;;;;;;6219523;28;20104;-78
2021/04/08 11:21:01;;;;;;;3.90;1.80;;;19.30;19.80;;;;;;6230393;28;20040;-78
2021/04/08 11:24:02;;;;;;;3.67;1.50;;;19.70;19.50;;;;;;6246704;28;20037;-77
2021/04/08 11:27:03;;;;;;;6.70;2.92;;;20.00;19.30;;;;;;6229620;28;20480;-78
2021/04/08 11:30:06;;;;;;;2.72;1.60;;;20.30;19.00;;;;;;6213642;28;20116;-78
2021/04/08 11:33:12;;;;;;;3.05;1.30;;;20.50;18.60;;;;;;6230732;28;20033;-78
2021/04/08 11:36:19;;;;;;;3.13;1.10;;;20.70;18.50;;;;;;6245964;28;20044;-78
2021/04/08 11:39:20;;;;;;;8.15;1.40;;;20.90;18.30;;;;;;6247256;28;20040;-77
2021/04/08 11:42:25;;;;;;;2.38;1.30;;;21.00;18.20;;;;;;6253455;28;20040;-77
2021/04/08 11:45:30;;;;;;;1.38;1.20;;;21.20;18.30;;;;;;6226621;28;20036;-78
2021/04/08 11:48:42;;;;;;;2.10;1.40;;;21.40;18.00;;;;;;6221021;28;20041;-77
2021/04/08 11:51:44;;;;;;;6.88;1.20;;;21.60;17.80;;;;;;6266471;28;20131;-77
2021/04/08 11:55:04;;;;;;;3.30;1.27;;;21.70;17.20;;;;;;6252832;28;20044;-78
2021/04/08 11:58:06;;;;;;;3.75;1.30;;;21.80;17.00;;;;;;6253232;28;20029;-78
2021/04/08 12:01:09;;;;;;;3.00;1.25;;;22.10;16.40;;;;;;6247934;28;20064;-78
2021/04/08 12:04:14;;;;;;;4.35;0.80;;;22.30;16.20;;;;;;6234510;28;20037;-77
2021/04/08 12:07:15;;;;;;;5.38;1.17;;;22.80;15.80;;;;;;6224403;28;20501;-77
2021/04/08 12:10:30;;;;;;;1.27;0.70;;;23.30;15.30;;;;;;6254454;28;20049;-78
2021/04/08 12:13:32;;;;;;;3.63;0.90;;;23.70;14.50;;;;;;6229464;28;20384;-77
2021/04/08 12:16:33;;;;;;;3.20;1.20;;;24.00;14.00;;;;;;6195004;28;20049;-77
2021/04/08 12:19:36;;;;;;;0.82;0.70;;;24.40;14.00;;;;;;6241581;28;20033;-77
2021/04/08 12:22:37;;;;;;;1.42;0.73;;;24.70;13.40;;;;;;6249353;28;20037;-77
2021/04/08 12:25:51;;;;;;;2.40;0.80;;;25.00;13.30;;;;;;6234255;28;20033;-78
2021/04/08 12:28:52;;;;;;;2.95;0.57;;;25.40;13.30;;;;;;6251328;28;20045;-81
2021/04/08 12:31:54;;;;;;;1.80;0.60;;;26.10;12.70;;;;;;6242508;28;20475;-78
2021/04/08 12:34:56;;;;;;;0.98;0.52;;;26.80;12.20;;;;;;6217915;28;20099;-78
2021/04/08 12:37:57;;;;;;;0.60;0.50;;;27.30;11.40;;;;;;6233990;28;20060;-78
2021/04/08 12:40:59;;;;;;;0.57;0.50;;;27.60;10.80;;;;;;6232903;28;20046;-79
2021/04/08 12:44:00;;;;;;;1.02;0.65;;;27.90;10.60;;;;;;6250503;28;20092;-79
2021/04/08 12:47:01;;;;;;;0.65;0.50;;;28.40;10.60;;;;;;6232642;28;20041;-78
2021/04/08 12:50:03;;;;;;;0.98;0.45;;;29.00;10.10;;;;;;6250497;28;20116;-78
2021/04/08 12:53:05;;;;;;;0.70;0.40;;;29.80;9.90;;;;;;6239806;28;20356;-78
2021/04/08 12:56:06;;;;;;;3.15;0.82;;;30.60;9.80;;;;;;6223548;28;20039;-77
2021/04/08 12:59:07;;;;;;;0.98;0.45;;;31.40;9.30;;;;;;6238221;28;20036;-78
2021/04/08 13:02:07;;;;;;;1.33;0.80;;;31.90;8.80;;;;;;6239280;28;20029;-78
2021/04/08 13:05:09;;;;;;;0.40;0.40;;;32.10;8.50;;;;;;6240472;28;20052;-78
2021/04/08 13:08:10;;;;;;;1.85;0.85;;;32.50;8.40;;;;;;6239718;28;20129;-78
2021/04/08 13:11:11;;;;;;;1.77;0.60;;;32.60;8.10;;;;;;6256463;28;20051;-78
2021/04/08 13:14:13;;;;;;;0.90;0.47;;;32.80;7.90;;;;;;6245379;28;20037;-78
2021/04/08 13:17:14;;;;;;;1.10;0.60;;;33.00;7.70;;;;;;6239295;28;20053;-78
2021/04/08 13:20:14;;;;;;;3.42;0.50;;;33.20;7.20;;;;;;6252419;28;20033;-78
2021/04/08 13:23:15;;;;;;;1.50;0.40;;;33.40;7.20;;;;;;6226611;28;20053;-80
2021/04/08 13:26:17;;;;;;;0.63;0.40;;;33.40;6.80;;;;;;6224439;28;20068;-79
2021/04/08 13:29:18;;;;;;;0.75;0.50;;;33.50;6.50;;;;;;6197497;28;20109;-78
2021/04/08 13:32:19;;;;;;;0.52;0.38;;;33.50;6.30;;;;;;6259100;28;20036;-77
2021/04/08 13:35:22;;;;;;;0.30;0.30;;;33.40;6.40;;;;;;6234076;28;20037;-80
2021/04/08 13:38:23;;;;;;;1.48;0.20;;;33.30;6.30;;;;;;6276251;28;20037;-78
2021/04/08 13:41:24;;;;;;;1.13;0.55;;;33.40;6.20;;;;;;6249150;28;20029;-78
2021/04/08 13:44:24;;;;;;;4.43;0.65;;;33.50;6.60;;;;;;6239549;28;20368;-78
2021/04/08 13:47:25;;;;;;;2.45;0.75;;;33.50;5.60;;;;;;6225966;28;20030;-77
2021/04/08 13:50:26;;;;;;;0.45;0.43;;;33.50;5.60;;;;;;6215967;28;20041;-78
2021/04/08 13:53:31;;;;;;;3.35;0.73;;;33.80;5.70;;;;;;6245270;28;20452;-79
2021/04/08 13:56:32;;;;;;;3.17;1.42;;;34.30;5.70;;;;;;6241041;28;20128;-78
2021/04/08 13:59:33;;;;;;;1.20;0.63;;;34.50;5.60;;;;;;6217200;28;20029;-79
2021/04/08 14:02:35;;;;;;;1.60;0.50;;;34.60;5.50;;;;;;6240246;28;20025;-78
2021/04/08 14:05:36;;;;;;;0.77;0.60;;;33.50;5.70;;;;;;6250940;28;20330;-78
2021/04/08 14:08:37;;;;;;;0.60;0.50;;;32.00;5.80;;;;;;6265812;28;20049;-78
2021/04/08 14:11:40;;;;;;;0.68;0.52;;;30.40;5.90;;;;;;6252385;28;20033;-78
2021/04/08 14:14:42;;;;;;;2.17;0.50;;;29.10;6.20;;;;;;6250259;28;20037;-79
2021/04/08 14:17:44;;;;;;;0.65;0.47;;;27.90;6.30;;;;;;6220211;28;20060;-78
2021/04/08 14:20:45;;;;;;;0.63;0.40;;;26.60;6.50;;;;;;6255392;28;20041;-78
2021/04/08 14:23:47;;;;;;;1.58;0.38;;;25.60;6.90;;;;;;6260159;28;20048;-78
2021/04/08 14:26:50;;;;;;;0.30;0.30;;;24.70;7.10;;;;;;6249382;28;20038;-78
2021/04/08 14:29:51;;;;;;;0.38;0.38;;;24.00;7.30;;;;;;6249032;28;20095;-77
2021/04/08 14:32:53;;;;;;;0.50;0.32;;;23.30;7.20;;;;;;6223862;28;20392;-78
2021/04/08 14:35:54;;;;;;;0.20;0.20;;;22.70;7.50;;;;;;6239286;28;20535;-79
2021/04/08 14:38:55;;;;;;;1.95;0.50;;;22.30;7.70;;;;;;6219462;28;20068;-77
2021/04/08 14:41:56;;;;;;;0.52;0.30;;;22.00;8.00;;;;;;6232680;28;20037;-77
2021/04/08 14:44:57;;;;;;;1.80;0.60;;;21.80;8.20;;;;;;6216014;28;20041;-78
2021/04/08 14:47:59;;;;;;;0.82;0.20;;;21.60;8.40;;;;;;6213640;28;20041;-79
2021/04/08 14:51:02;;;;;;;0.70;0.40;;;21.40;8.50;;;;;;6221572;28;20033;-77
2021/04/08 14:54:05;;;;;;;0.55;0.50;;;21.20;8.50;;;;;;6240179;28;20037;-77
2021/04/08 14:57:06;;;;;;;1.23;0.50;;;21.10;8.90;;;;;;6237075;28;20034;-78
2021/04/08 15:00:08;;;;;;;1.30;0.70;;;21.00;9.10;;;;;;6232015;28;20038;-77
2021/04/08 15:03:09;;;;;;;2.10;0.65;;;20.90;9.30;;;;;;6215611;28;20029;-77
2021/04/08 15:06:10;;;;;;;2.45;0.63;;;20.80;9.40;;;;;;6256175;28;20090;-77
2021/04/08 15:09:11;;;;;;;1.13;0.68;;;20.70;9.50;;;;;;6238714;28;20475;-77
2021/04/08 15:12:16;;;;;;;1.30;0.60;;;20.60;9.50;;;;;;6251399;28;20373;-79
2021/04/08 15:15:18;;;;;;;1.83;0.50;;;20.60;9.60;;;;;;6267686;28;20029;-78
2021/04/08 15:18:19;;;;;;;0.77;0.50;;;20.50;9.70;;;;;;6222497;28;20053;-77
2021/04/08 15:21:20;;;;;;;0.40;0.30;;;20.50;9.80;;;;;;6264727;28;20043;-78
2021/04/08 15:24:22;;;;;;;0.57;0.43;;;20.50;9.90;;;;;;6209898;28;20034;-78
2021/04/08 15:27:23;;;;;;;3.05;0.60;;;20.50;9.90;;;;;;6248086;28;20037;-79
2021/04/08 15:30:25;;;;;;;2.72;0.50;;;20.50;10.00;;;;;;6240726;28;20037;-78
2021/04/08 15:33:26;;;;;;;2.13;0.60;;;20.50;10.00;;;;;;6254154;28;20029;-77
2021/04/08 15:36:27;;;;;;;0.57;0.35;;;20.50;10.00;;;;;;6233037;28;20029;-78
2021/04/08 15:39:28;;;;;;;0.73;0.40;;;20.50;10.10;;;;;;6255044;28;20090;-77
2021/04/08 15:42:29;;;;;;;3.08;0.50;;;20.50;10.10;;;;;;6253728;28;20459;-77
2021/04/08 15:45:30;;;;;;;0.47;0.30;;;20.50;10.20;;;;;;6238654;28;20359;-77
2021/04/08 15:48:32;;;;;;;0.68;0.65;;;20.50;10.30;;;;;;6220716;28;20107;-77
2021/04/08 15:51:33;;;;;;;1.50;0.70;;;20.50;10.50;;;;;;6237209;28;20068;-77
2021/04/08 15:54:34;;;;;;;0.82;0.40;;;20.60;10.70;;;;;;6218205;28;20041;-77
2021/04/08 15:57:43;;;;;;;3.60;0.70;;;20.60;10.70;;;;;;6271178;28;20049;-79
2021/04/08 16:00:44;;;;;;;0.40;0.38;;;20.70;10.80;;;;;;6244266;28;20110;-76
2021/04/08 16:03:47;;;;;;;1.02;0.63;;;20.90;10.70;;;;;;6224570;28;20071;-78